GMMX/RAK METAR and TAF weather

Enter ICAO airport designator
Station Type Date Time Source
GMMX METAR 2019/12/14 11:00 UTC NOAA

GMMX 141100Z VRB02KT CAVOK 17/08 Q1023 NOSIG


Station Type Date Time Source
GMMX Decoded METAR 2019/12/14 11:00 UTC NOAA

Marrakech, Morocco (GMMX) 31-37N 008-02W 466M
Dec 14, 2019 - 06:00 AM EST / 2019.12.14 1100 UTC
Wind: Variable at 2 MPH (2 KT):0
Visibility: greater than 7 mile(s):0
Temperature: 62 F (17 C)
Dew Point: 46 F (8 C)
Relative Humidity: 55%
Pressure (altimeter): 30.21 in. Hg (1023 hPa)
ob: GMMX 141100Z VRB02KT CAVOK 17/08 Q1023 NOSIG
cycle: 11

Station Type Date Time Source
GMMX TAF 2019/12/14 12:18 UTC NOAA

TAF GMMX 141100Z 1412/1518 28003KT 8000 NSC
TEMPO 1416/1422 04014KT

Example: see airport list